createdAt,value
2018-11-05T00:00:03.605Z,49.60
2018-11-05T00:02:30.077Z,49.60
2018-11-05T00:04:56.543Z,49.60
2018-11-05T00:07:22.992Z,49.60
2018-11-05T00:09:49.463Z,49.70
2018-11-05T00:12:15.914Z,49.70
2018-11-05T00:14:42.375Z,49.70
2018-11-05T00:17:08.802Z,49.70
2018-11-05T00:19:35.262Z,49.70
2018-11-05T00:22:01.711Z,49.70
2018-11-05T00:24:28.398Z,49.70
2018-11-05T00:26:54.842Z,49.70
2018-11-05T00:29:21.280Z,49.70
2018-11-05T00:31:47.753Z,49.80
2018-11-05T00:34:14.378Z,49.80
2018-11-05T00:36:40.834Z,49.80
2018-11-05T00:39:07.737Z,49.80
2018-11-05T00:41:34.150Z,49.90
2018-11-05T00:44:00.607Z,49.90
2018-11-05T00:46:27.160Z,49.90
2018-11-05T00:48:53.566Z,50.00
2018-11-05T00:51:20.085Z,50.00
2018-11-05T00:53:46.546Z,50.00
2018-11-05T00:56:12.984Z,50.00
2018-11-05T00:58:39.473Z,50.00
2018-11-05T01:01:05.984Z,50.00
2018-11-05T01:03:32.465Z,50.00
2018-11-05T01:05:58.890Z,50.00
2018-11-05T01:08:25.332Z,50.00
2018-11-05T01:10:51.780Z,50.00
2018-11-05T01:13:18.216Z,50.00
2018-11-05T01:15:44.673Z,50.00
2018-11-05T01:18:11.098Z,50.00
2018-11-05T01:20:37.532Z,50.00
2018-11-05T01:23:03.986Z,50.00
2018-11-05T01:25:30.451Z,49.90
2018-11-05T01:27:56.860Z,49.90
2018-11-05T01:30:23.298Z,50.50
2018-11-05T01:32:49.756Z,50.00
2018-11-05T01:35:16.166Z,50.00
2018-11-05T01:37:42.608Z,49.90
2018-11-05T01:40:11.260Z,49.90
2018-11-05T01:42:37.762Z,49.90
2018-11-05T01:45:04.183Z,49.90
2018-11-05T01:47:30.644Z,49.90
2018-11-05T01:49:57.077Z,49.90
2018-11-05T01:52:23.497Z,49.80
2018-11-05T01:54:49.917Z,49.80
2018-11-05T01:57:16.339Z,49.80
2018-11-05T01:59:42.755Z,49.80
2018-11-05T02:02:09.233Z,49.80
2018-11-05T02:04:35.645Z,49.80
2018-11-05T02:07:02.114Z,49.80
2018-11-05T02:09:28.570Z,49.80
2018-11-05T02:11:55.017Z,49.80
2018-11-05T02:14:21.477Z,49.80
2018-11-05T02:16:47.933Z,49.80
2018-11-05T02:19:14.432Z,50.40
2018-11-05T02:21:40.875Z,49.80
2018-11-05T02:24:07.391Z,50.20
2018-11-05T02:26:33.825Z,49.80
2018-11-05T02:29:00.287Z,49.80
2018-11-05T02:31:26.741Z,49.80
2018-11-05T02:33:53.211Z,49.80
2018-11-05T02:36:19.661Z,49.70
2018-11-05T02:38:46.093Z,49.80
2018-11-05T02:41:12.525Z,49.90
2018-11-05T02:43:38.971Z,50.00
2018-11-05T02:46:05.405Z,49.90
2018-11-05T02:48:31.867Z,50.00
2018-11-05T02:50:58.307Z,50.00
2018-11-05T02:53:24.755Z,50.00
2018-11-05T02:55:51.219Z,50.00
2018-11-05T02:58:17.681Z,50.00
2018-11-05T03:00:44.109Z,50.00
2018-11-05T03:03:10.592Z,50.00
2018-11-05T03:05:36.971Z,50.00
2018-11-05T03:08:03.399Z,50.00
2018-11-05T03:10:29.837Z,50.00
2018-11-05T03:12:56.297Z,50.10
2018-11-05T03:15:22.701Z,50.10
2018-11-05T03:17:49.138Z,50.10
2018-11-05T03:20:15.878Z,50.00
2018-11-05T03:22:42.871Z,50.10
2018-11-05T03:25:09.285Z,50.10
2018-11-05T03:27:36.065Z,50.10
2018-11-05T03:30:02.489Z,50.20
2018-11-05T03:32:28.922Z,50.20
2018-11-05T03:34:55.430Z,50.10
2018-11-05T03:37:21.921Z,50.10
2018-11-05T03:39:48.357Z,50.10
2018-11-05T03:42:14.757Z,50.20
2018-11-05T03:44:41.205Z,50.10
2018-11-05T03:47:07.667Z,50.10
2018-11-05T03:49:34.081Z,50.10
2018-11-05T03:52:00.549Z,50.10
2018-11-05T03:54:26.968Z,50.20
2018-11-05T03:56:53.442Z,50.10
2018-11-05T03:59:19.890Z,50.10
2018-11-05T04:01:46.321Z,50.10
2018-11-05T04:04:12.866Z,50.10
2018-11-05T04:06:39.308Z,50.10
2018-11-05T04:09:05.749Z,50.20
2018-11-05T04:11:32.201Z,50.10
2018-11-05T04:13:58.623Z,50.20
2018-11-05T04:16:25.094Z,50.30
2018-11-05T04:18:51.531Z,50.10
2018-11-05T04:21:17.967Z,50.10
2018-11-05T04:23:44.518Z,50.10
2018-11-05T04:26:10.975Z,50.50
2018-11-05T04:28:37.381Z,50.20
2018-11-05T04:31:03.845Z,50.10
2018-11-05T04:33:30.287Z,50.10
2018-11-05T04:35:56.717Z,50.10
2018-11-05T04:38:23.137Z,50.10
2018-11-05T04:40:49.591Z,50.80
2018-11-05T04:43:16.031Z,50.70
2018-11-05T04:45:42.445Z,50.20
2018-11-05T04:48:08.847Z,50.20
2018-11-05T04:50:35.274Z,50.20
2018-11-05T04:53:01.699Z,50.20
2018-11-05T04:55:28.142Z,50.10
2018-11-05T04:57:54.582Z,50.10
2018-11-05T05:00:21.019Z,50.70
2018-11-05T05:02:47.455Z,50.00
2018-11-05T05:05:14.942Z,49.90
2018-11-05T05:07:41.666Z,49.90
2018-11-05T05:10:08.378Z,49.90
2018-11-05T05:12:34.832Z,49.10
2018-11-05T05:15:01.271Z,49.50
2018-11-05T05:17:27.722Z,49.60
2018-11-05T05:19:54.166Z,49.50
2018-11-05T05:22:20.614Z,49.60
2018-11-05T05:24:47.080Z,49.60
2018-11-05T05:27:13.498Z,49.60
2018-11-05T05:29:40.058Z,49.60
2018-11-05T05:32:06.526Z,49.60
2018-11-05T05:34:33.057Z,49.50
2018-11-05T05:36:59.532Z,49.50
2018-11-05T05:39:26.143Z,49.60
2018-11-05T05:41:52.578Z,49.50
2018-11-05T05:44:19.015Z,50.10
2018-11-05T05:46:45.466Z,50.00
2018-11-05T05:49:11.930Z,49.90
2018-11-05T05:51:38.379Z,49.90
2018-11-05T05:54:04.810Z,50.20
2018-11-05T05:56:31.251Z,50.20
2018-11-05T05:58:57.715Z,50.00
2018-11-05T06:01:24.162Z,50.10
2018-11-05T06:03:50.613Z,50.30
2018-11-05T06:06:17.231Z,50.30
2018-11-05T06:08:43.501Z,50.20
2018-11-05T06:11:09.975Z,50.40
2018-11-05T06:13:36.396Z,50.20
2018-11-05T06:16:03.020Z,50.20
2018-11-05T06:18:29.403Z,50.30
2018-11-05T06:20:55.829Z,50.20
2018-11-05T06:23:22.302Z,50.30
2018-11-05T06:25:48.738Z,50.50
2018-11-05T06:28:15.317Z,50.50
2018-11-05T06:30:41.721Z,50.50
2018-11-05T06:33:08.132Z,50.80
2018-11-05T06:35:34.564Z,50.70
2018-11-05T06:38:01.692Z,50.70
2018-11-05T06:40:28.126Z,50.70
2018-11-05T06:42:54.646Z,51.30
2018-11-05T06:45:21.832Z,50.60
2018-11-05T06:47:48.582Z,50.50
2018-11-05T06:50:17.513Z,50.60
2018-11-05T06:52:44.657Z,50.60
2018-11-05T06:55:11.775Z,50.50
2018-11-05T06:57:38.828Z,50.40
2018-11-05T07:00:05.271Z,50.50
2018-11-05T07:02:31.773Z,50.80
2018-11-05T07:04:58.150Z,50.40
2018-11-05T07:07:24.587Z,50.40
2018-11-05T07:09:51.115Z,50.40
2018-11-05T07:12:17.538Z,50.40
2018-11-05T07:14:43.997Z,50.40
2018-11-05T07:17:10.456Z,50.40
2018-11-05T07:19:37.001Z,50.30
2018-11-05T07:22:03.409Z,50.40
2018-11-05T07:24:29.862Z,50.30
2018-11-05T07:26:56.355Z,50.50
2018-11-05T07:29:22.823Z,50.30
2018-11-05T07:31:50.457Z,50.30
2018-11-05T07:34:16.953Z,50.20
2018-11-05T07:36:43.374Z,50.30
2018-11-05T07:39:10.983Z,50.20
2018-11-05T07:41:38.091Z,50.80
2018-11-05T07:44:04.519Z,50.20
2018-11-05T07:46:30.941Z,50.20
2018-11-05T07:48:57.405Z,50.30
2018-11-05T07:51:23.988Z,50.20
2018-11-05T07:53:50.443Z,50.10
2018-11-05T07:56:16.984Z,50.00
2018-11-05T07:58:43.335Z,50.00
2018-11-05T08:01:09.825Z,49.90
2018-11-05T08:03:36.297Z,49.80
2018-11-05T08:06:02.763Z,49.70
2018-11-05T08:08:29.289Z,49.70
2018-11-05T08:10:55.649Z,49.80
2018-11-05T08:13:22.119Z,49.70
2018-11-05T08:15:48.553Z,49.70
2018-11-05T08:18:14.970Z,49.70
2018-11-05T08:20:41.410Z,49.70
2018-11-05T08:23:07.889Z,49.70
2018-11-05T08:25:34.311Z,49.70
2018-11-05T08:28:00.885Z,49.70
2018-11-05T08:30:27.336Z,49.80
2018-11-05T08:32:54.114Z,49.70
2018-11-05T08:35:20.791Z,49.70
2018-11-05T08:37:47.749Z,49.70
2018-11-05T08:40:15.670Z,49.70
2018-11-05T08:42:42.741Z,50.30
2018-11-05T08:45:09.847Z,49.70
2018-11-05T08:47:36.353Z,49.50
2018-11-05T08:50:02.989Z,50.20
2018-11-05T08:52:29.372Z,49.70
2018-11-05T08:54:55.802Z,49.70
2018-11-05T08:57:22.327Z,49.70
2018-11-05T08:59:48.720Z,49.70
2018-11-05T09:02:15.173Z,49.70
2018-11-05T09:04:41.662Z,49.60
2018-11-05T09:07:08.028Z,49.60
2018-11-05T09:09:34.460Z,49.70
2018-11-05T09:12:00.991Z,49.70
2018-11-05T09:14:27.375Z,49.60
2018-11-05T09:16:53.812Z,49.60
2018-11-05T09:19:20.336Z,49.60
2018-11-05T09:21:46.705Z,49.60
2018-11-05T09:24:13.125Z,49.60
2018-11-05T09:26:39.535Z,50.20
2018-11-05T09:29:06.261Z,49.60
2018-11-05T09:31:32.691Z,49.50
2018-11-05T09:33:59.123Z,49.60
2018-11-05T09:36:25.567Z,49.60
2018-11-05T09:38:52.013Z,49.60
2018-11-05T09:41:18.483Z,49.50
2018-11-05T09:43:44.944Z,49.60
2018-11-05T09:46:11.461Z,49.50
2018-11-05T09:48:37.911Z,49.60
2018-11-05T09:51:04.366Z,49.50
2018-11-05T09:53:30.824Z,49.50
2018-11-05T09:55:57.272Z,50.10
2018-11-05T09:58:23.666Z,49.50
2018-11-05T10:00:50.115Z,49.50
2018-11-05T10:03:17.630Z,49.50
2018-11-05T10:05:44.198Z,49.50
2018-11-05T10:08:10.482Z,49.50
2018-11-05T10:10:36.911Z,49.50
2018-11-05T10:13:03.360Z,49.50
2018-11-05T10:15:29.836Z,49.50
2018-11-05T10:17:56.280Z,49.50
2018-11-05T10:20:23.854Z,49.40
2018-11-05T10:22:50.295Z,49.40
2018-11-05T10:25:17.047Z,49.40
2018-11-05T10:27:43.754Z,49.40
2018-11-05T10:30:14.521Z,49.40
2018-11-05T10:32:41.338Z,49.40
2018-11-05T10:35:07.720Z,49.40
2018-11-05T10:37:34.208Z,49.40
2018-11-05T10:40:01.249Z,49.40
2018-11-05T10:42:27.680Z,49.40
2018-11-05T10:44:54.144Z,49.40
2018-11-05T10:47:20.595Z,50.00
2018-11-05T10:49:47.012Z,49.40
2018-11-05T10:52:13.642Z,49.40
2018-11-05T10:54:39.916Z,49.50
2018-11-05T10:57:06.390Z,49.50
2018-11-05T10:59:32.839Z,50.10
2018-11-05T11:02:04.796Z,48.90
2018-11-05T11:04:31.268Z,49.40
2018-11-05T11:06:57.682Z,49.40
2018-11-05T11:09:24.167Z,49.40
2018-11-05T11:11:50.593Z,49.50
2018-11-05T11:14:17.003Z,49.40
2018-11-05T11:16:43.540Z,49.50
2018-11-05T11:19:09.969Z,49.60
2018-11-05T11:21:36.435Z,49.60
2018-11-05T11:24:02.871Z,49.60
2018-11-05T11:26:29.301Z,49.70
2018-11-05T11:28:55.791Z,49.70
2018-11-05T11:31:22.161Z,49.60
2018-11-05T11:33:48.583Z,50.10
2018-11-05T11:36:15.037Z,49.70
2018-11-05T11:38:41.498Z,49.60
2018-11-05T11:41:07.975Z,49.60
2018-11-05T11:43:34.408Z,49.60
2018-11-05T11:46:00.929Z,49.60
2018-11-05T11:48:27.323Z,49.60
2018-11-05T11:50:53.791Z,49.60
2018-11-05T11:53:20.370Z,49.60
2018-11-05T11:55:46.689Z,49.50
2018-11-05T11:58:13.160Z,49.30
2018-11-05T12:00:39.609Z,49.50
2018-11-05T12:03:06.049Z,49.30
2018-11-05T12:05:32.517Z,49.30
2018-11-05T12:07:58.981Z,49.20
2018-11-05T12:10:25.411Z,49.20
2018-11-05T12:12:51.876Z,49.30
2018-11-05T12:15:19.219Z,49.30
2018-11-05T12:17:46.662Z,49.40
2018-11-05T12:20:16.427Z,49.30
2018-11-05T12:22:43.571Z,49.30
2018-11-05T12:25:10.191Z,49.20
2018-11-05T12:27:36.654Z,49.20
2018-11-05T12:30:03.127Z,49.20
2018-11-05T12:32:29.563Z,49.40
2018-11-05T12:34:56.025Z,49.20
2018-11-05T12:37:22.442Z,49.30
2018-11-05T12:39:48.899Z,49.30
2018-11-05T12:42:15.378Z,49.20
2018-11-05T12:44:41.812Z,49.20
2018-11-05T12:47:08.299Z,49.30
2018-11-05T12:49:34.753Z,49.20
2018-11-05T12:52:01.157Z,49.30
2018-11-05T12:54:27.596Z,49.20
2018-11-05T12:56:54.032Z,49.20
2018-11-05T12:59:20.468Z,49.90
2018-11-05T13:01:47.806Z,49.30
2018-11-05T13:04:14.319Z,49.20
2018-11-05T13:06:40.750Z,49.20
2018-11-05T13:09:07.187Z,49.20
2018-11-05T13:11:33.647Z,49.20
2018-11-05T13:14:00.107Z,49.20
2018-11-05T13:16:26.530Z,49.20
2018-11-05T13:18:53.153Z,49.20
2018-11-05T13:21:19.522Z,49.20
2018-11-05T13:23:46.747Z,49.20
2018-11-05T13:26:14.113Z,49.30
2018-11-05T13:28:40.617Z,49.20
2018-11-05T13:31:07.077Z,49.20
2018-11-05T13:33:33.517Z,49.20
2018-11-05T13:36:00.013Z,49.20
2018-11-05T13:38:26.462Z,49.20
2018-11-05T13:40:52.887Z,49.20
2018-11-05T13:43:19.317Z,49.30
2018-11-05T13:45:46.093Z,49.30
2018-11-05T13:48:12.523Z,49.20
2018-11-05T13:50:38.646Z,49.20
2018-11-05T13:53:05.062Z,49.20
2018-11-05T13:55:31.497Z,49.20
2018-11-05T13:57:57.942Z,49.20
2018-11-05T14:00:24.357Z,49.20
2018-11-05T14:02:50.786Z,49.20
2018-11-05T14:05:17.235Z,49.20
2018-11-05T14:07:43.766Z,49.20
2018-11-05T14:10:13.744Z,49.20
2018-11-05T14:12:40.734Z,49.30
2018-11-05T14:15:07.160Z,49.20
2018-11-05T14:17:33.616Z,49.20
2018-11-05T14:20:00.096Z,49.20
2018-11-05T14:22:26.532Z,49.20
2018-11-05T14:24:53.064Z,49.20
2018-11-05T14:27:19.571Z,49.20
2018-11-05T14:29:46.450Z,49.20
2018-11-05T14:32:12.572Z,49.20
2018-11-05T14:34:38.994Z,49.30
2018-11-05T14:37:05.446Z,49.20
2018-11-05T14:39:31.931Z,49.20
2018-11-05T14:41:58.354Z,49.30
2018-11-05T14:44:24.794Z,49.20
2018-11-05T14:46:51.254Z,49.30
2018-11-05T14:49:17.721Z,49.20
2018-11-05T14:51:44.151Z,49.20
2018-11-05T14:54:10.618Z,49.20
2018-11-05T14:56:37.055Z,49.10
2018-11-05T14:59:03.494Z,49.20
2018-11-05T15:01:29.959Z,49.20
2018-11-05T15:03:56.456Z,49.20
2018-11-05T15:06:22.978Z,49.30
2018-11-05T15:08:50.360Z,49.20
2018-11-05T15:11:16.853Z,49.30
2018-11-05T15:13:44.017Z,49.30
2018-11-05T15:16:10.456Z,49.10
2018-11-05T15:18:37.041Z,49.20
2018-11-05T15:21:03.425Z,49.20
2018-11-05T15:23:29.842Z,49.20
2018-11-05T15:25:56.324Z,49.80
2018-11-05T15:28:22.764Z,49.20
2018-11-05T15:30:49.198Z,49.20
2018-11-05T15:33:15.738Z,49.30
2018-11-05T15:35:42.099Z,49.40
2018-11-05T15:38:08.541Z,49.40
2018-11-05T15:40:35.001Z,49.40
2018-11-05T15:43:01.446Z,49.40
2018-11-05T15:45:27.908Z,49.50
2018-11-05T15:47:54.344Z,49.50
2018-11-05T15:50:21.312Z,49.40
2018-11-05T15:52:48.064Z,49.50
2018-11-05T15:55:14.325Z,49.50
2018-11-05T15:57:41.080Z,49.50
2018-11-05T16:00:12.347Z,49.50
2018-11-05T16:02:38.812Z,49.40
2018-11-05T16:05:05.269Z,49.50
2018-11-05T16:07:31.697Z,49.40
2018-11-05T16:09:58.141Z,49.50
2018-11-05T16:12:24.601Z,49.40
2018-11-05T16:14:51.051Z,49.50
2018-11-05T16:17:17.495Z,49.50
2018-11-05T16:19:43.917Z,49.50
2018-11-05T16:22:10.365Z,50.00
2018-11-05T16:24:36.927Z,49.50
2018-11-05T16:27:03.286Z,49.60
2018-11-05T16:29:29.792Z,49.50
2018-11-05T16:31:56.312Z,49.60
2018-11-05T16:34:22.729Z,49.60
2018-11-05T16:36:49.176Z,49.70
2018-11-05T16:39:15.666Z,49.70
2018-11-05T16:41:42.537Z,49.60
2018-11-05T16:44:09.591Z,49.60
2018-11-05T16:46:36.064Z,49.60
2018-11-05T16:49:02.535Z,49.60
2018-11-05T16:51:28.953Z,49.50
2018-11-05T16:53:55.505Z,49.50
2018-11-05T16:56:21.858Z,49.50
2018-11-05T16:58:48.331Z,49.40
2018-11-05T17:01:15.116Z,49.50
2018-11-05T17:03:41.288Z,49.50
2018-11-05T17:06:07.713Z,49.50
2018-11-05T17:08:34.239Z,49.60
2018-11-05T17:11:00.672Z,49.60
2018-11-05T17:13:27.292Z,49.60
2018-11-05T17:15:53.674Z,50.10
2018-11-05T17:18:20.185Z,49.60
2018-11-05T17:20:46.655Z,49.60
2018-11-05T17:23:13.173Z,49.60
2018-11-05T17:25:39.733Z,49.70
2018-11-05T17:28:06.194Z,49.60
2018-11-05T17:30:32.725Z,49.80
2018-11-05T17:32:59.236Z,49.80
2018-11-05T17:35:25.715Z,49.90
2018-11-05T17:37:52.152Z,49.80
2018-11-05T17:40:20.275Z,49.80
2018-11-05T17:42:46.652Z,49.80
2018-11-05T17:45:14.595Z,49.90
2018-11-05T17:47:41.155Z,49.80
2018-11-05T17:50:08.223Z,49.80
2018-11-05T17:52:34.679Z,49.90
2018-11-05T17:55:01.152Z,49.90
2018-11-05T17:57:27.583Z,50.00
2018-11-05T17:59:54.072Z,50.00
2018-11-05T18:02:24.554Z,50.00
2018-11-05T18:04:52.313Z,50.00
2018-11-05T18:07:18.759Z,50.10
2018-11-05T18:09:45.217Z,50.30
2018-11-05T18:12:11.683Z,50.30
2018-11-05T18:14:38.134Z,50.40
2018-11-05T18:17:04.622Z,50.50
2018-11-05T18:19:31.098Z,50.60
2018-11-05T18:21:57.547Z,50.70
2018-11-05T18:24:24.104Z,50.80
2018-11-05T18:26:50.544Z,50.80
2018-11-05T18:29:16.989Z,51.00
2018-11-05T18:31:43.443Z,51.10
2018-11-05T18:34:09.925Z,50.90
2018-11-05T18:36:36.410Z,50.80
2018-11-05T18:39:02.952Z,50.70
2018-11-05T18:41:29.392Z,50.70
2018-11-05T18:43:55.848Z,50.90
2018-11-05T18:46:22.298Z,50.90
2018-11-05T18:48:48.747Z,50.80
2018-11-05T18:51:15.211Z,50.80
2018-11-05T18:53:41.664Z,50.90
2018-11-05T18:56:08.090Z,50.80
2018-11-05T18:58:34.559Z,51.10
2018-11-05T19:01:01.022Z,51.30
2018-11-05T19:03:27.661Z,51.10
2018-11-05T19:05:54.026Z,51.10
2018-11-05T19:08:20.480Z,51.20
2018-11-05T19:10:46.951Z,51.00
2018-11-05T19:13:13.367Z,51.10
2018-11-05T19:15:39.868Z,51.00
2018-11-05T19:18:06.323Z,51.20
2018-11-05T19:20:32.834Z,51.10
2018-11-05T19:22:59.455Z,51.00
2018-11-05T19:25:25.873Z,50.90
2018-11-05T19:27:52.380Z,51.00
2018-11-05T19:30:24.294Z,51.10
2018-11-05T19:32:50.727Z,50.90
2018-11-05T19:35:17.210Z,51.00
2018-11-05T19:37:43.669Z,51.00
2018-11-05T19:40:11.384Z,50.90
2018-11-05T19:42:38.215Z,50.90
2018-11-05T19:45:04.536Z,50.90
2018-11-05T19:47:30.988Z,50.90
2018-11-05T19:49:57.474Z,50.80
2018-11-05T19:52:23.911Z,50.80
2018-11-05T19:54:50.356Z,50.80
2018-11-05T19:57:16.843Z,50.70
2018-11-05T19:59:43.287Z,50.80
2018-11-05T20:02:09.763Z,50.70
2018-11-05T20:04:36.290Z,50.70
2018-11-05T20:07:02.718Z,50.70
2018-11-05T20:09:29.166Z,50.60
2018-11-05T20:11:55.659Z,50.70
2018-11-05T20:14:22.110Z,51.30
2018-11-05T20:16:48.628Z,50.70
2018-11-05T20:19:15.261Z,50.70
2018-11-05T20:21:41.674Z,50.70
2018-11-05T20:24:08.137Z,50.70
2018-11-05T20:26:34.563Z,50.60
2018-11-05T20:29:01.116Z,50.60
2018-11-05T20:31:27.694Z,50.60
2018-11-05T20:33:54.209Z,50.60
2018-11-05T20:36:20.430Z,50.50
2018-11-05T20:38:46.895Z,50.60
2018-11-05T20:41:13.340Z,50.60
2018-11-05T20:43:39.820Z,50.60
2018-11-05T20:46:06.244Z,50.50
2018-11-05T20:48:32.688Z,50.40
2018-11-05T20:50:59.133Z,50.50
2018-11-05T20:53:25.626Z,50.40
2018-11-05T20:55:52.060Z,50.30
2018-11-05T20:58:18.518Z,50.40
2018-11-05T21:00:45.025Z,50.30
2018-11-05T21:03:11.434Z,50.30
2018-11-05T21:05:37.901Z,50.30
2018-11-05T21:08:04.356Z,50.30
2018-11-05T21:10:30.806Z,50.30
2018-11-05T21:12:57.257Z,50.30
2018-11-05T21:15:23.772Z,50.30
2018-11-05T21:17:50.552Z,50.30
2018-11-05T21:20:17.362Z,50.20
2018-11-05T21:22:44.768Z,50.20
2018-11-05T21:25:11.338Z,50.20
2018-11-05T21:27:38.556Z,50.20
2018-11-05T21:30:05.417Z,50.20
2018-11-05T21:32:32.282Z,50.10
2018-11-05T21:34:58.876Z,50.20
2018-11-05T21:37:25.237Z,50.10
2018-11-05T21:39:51.647Z,50.10
2018-11-05T21:42:18.093Z,50.10
2018-11-05T21:44:44.563Z,50.10
2018-11-05T21:47:11.057Z,50.60
2018-11-05T21:49:37.497Z,50.10
2018-11-05T21:52:03.950Z,50.10
2018-11-05T21:54:30.445Z,50.70
2018-11-05T21:56:56.882Z,50.10
2018-11-05T21:59:23.357Z,50.20
2018-11-05T22:01:49.811Z,50.10
2018-11-05T22:04:16.256Z,50.10
2018-11-05T22:06:42.707Z,50.10
2018-11-05T22:09:09.363Z,50.10
2018-11-05T22:11:35.838Z,50.00
2018-11-05T22:14:02.287Z,50.10
2018-11-05T22:16:28.742Z,50.20
2018-11-05T22:18:55.243Z,50.20
2018-11-05T22:21:21.692Z,50.40
2018-11-05T22:23:48.129Z,50.40
2018-11-05T22:26:14.575Z,50.50
2018-11-05T22:28:41.022Z,50.50
2018-11-05T22:31:07.458Z,50.50
2018-11-05T22:33:33.916Z,50.50
2018-11-05T22:36:00.384Z,50.80
2018-11-05T22:38:26.816Z,50.60
2018-11-05T22:40:53.270Z,51.20
2018-11-05T22:43:19.712Z,50.60
2018-11-05T22:45:46.152Z,50.70
2018-11-05T22:48:12.576Z,50.70
2018-11-05T22:50:39.038Z,50.60
2018-11-05T22:53:05.508Z,50.70
2018-11-05T22:55:31.979Z,50.60
2018-11-05T22:57:58.424Z,50.60
2018-11-05T23:00:30.539Z,50.60
2018-11-05T23:03:02.620Z,50.60
2018-11-05T23:05:29.072Z,50.60
2018-11-05T23:07:55.958Z,50.60
2018-11-05T23:10:22.397Z,50.60
2018-11-05T23:12:48.962Z,50.70
2018-11-05T23:15:15.629Z,50.70
2018-11-05T23:17:42.073Z,50.70
2018-11-05T23:20:09.295Z,51.30
2018-11-05T23:22:35.746Z,50.70
2018-11-05T23:25:02.365Z,50.70
2018-11-05T23:27:28.864Z,50.50
2018-11-05T23:29:55.293Z,50.60
2018-11-05T23:32:21.751Z,50.70
2018-11-05T23:34:48.229Z,51.10
2018-11-05T23:37:14.681Z,50.70
2018-11-05T23:39:41.152Z,50.60
2018-11-05T23:42:07.598Z,50.60
2018-11-05T23:44:34.027Z,50.60
2018-11-05T23:47:00.465Z,50.60
2018-11-05T23:49:26.927Z,50.60
2018-11-05T23:51:53.490Z,50.50
2018-11-05T23:54:19.849Z,50.50
2018-11-05T23:56:46.258Z,50.60
2018-11-05T23:59:12.697Z,50.60
